Las Tunas, Cuba
Current Conditions -  °F | °C
As of 9:50 PM on Thursday 20 Nov 2014 (Local Time) from MUHG Reporting Station
Few Clouds Few Clouds  
Wind Chill: 77°   Ceiling: Unl
Heat Index: 78°   Visibility: 6mi
Dew Point: 72°   Wind: 8mph
Humidity: 83%   Direction: 60°ENE
Pressure: 30"   Gusts: NA
Location:  20.97°N, 76.95°W
Report Text: MUHG 210150Z 06007KT 9999 FEW030 25/22 Q1016
Loading
Personal Weather Stations






























Interactive Weather Map New forecast layout! Learn more

10-Day Weather Forecast

Advertisements
Track Severe Weather on mobile